createdAt,value
2018-12-15T00:03:34.079Z,80.86
2018-12-15T00:07:39.080Z,80.99
2018-12-15T00:11:44.111Z,80.98
2018-12-15T00:15:49.211Z,81.08
2018-12-15T00:19:54.280Z,81.07
2018-12-15T00:23:59.304Z,81.14
2018-12-15T00:28:04.314Z,81.18
2018-12-15T00:32:09.301Z,81.10
2018-12-15T00:36:14.311Z,81.35
2018-12-15T00:40:19.294Z,81.22
2018-12-15T00:44:24.162Z,81.04
2018-12-15T00:48:29.203Z,81.13
2018-12-15T00:52:34.143Z,81.05
2018-12-15T00:56:39.631Z,81.12
2018-12-15T01:00:44.608Z,81.04
2018-12-15T01:04:49.631Z,81.26
2018-12-15T01:08:54.648Z,81.31
2018-12-15T01:12:59.743Z,81.45
2018-12-15T01:17:04.688Z,81.30
2018-12-15T01:21:10.006Z,81.32
2018-12-15T01:25:14.990Z,81.29
2018-12-15T01:29:20.032Z,81.45
2018-12-15T01:33:24.932Z,81.38
2018-12-15T01:37:29.935Z,81.41
2018-12-15T01:41:35.021Z,82.20
2018-12-15T01:45:40.026Z,81.86
2018-12-15T01:49:45.016Z,81.52
2018-12-15T01:53:50.024Z,81.44
2018-12-15T01:57:55.007Z,81.57
2018-12-15T02:02:00.079Z,81.57
2018-12-15T02:06:05.126Z,81.34
2018-12-15T02:10:49.327Z,81.34
2018-12-15T02:14:54.309Z,81.29
2018-12-15T02:18:59.381Z,81.39
2018-12-15T02:23:04.381Z,81.47
2018-12-15T02:27:09.405Z,81.45
2018-12-15T02:31:14.318Z,81.21
2018-12-15T02:35:19.342Z,81.33
2018-12-15T02:39:24.316Z,81.46
2018-12-15T02:43:29.338Z,81.35
2018-12-15T02:47:41.167Z,81.31
2018-12-15T02:51:41.348Z,81.30
2018-12-15T03:00:17.001Z,81.19
2018-12-15T03:04:22.050Z,81.20
2018-12-15T03:08:27.153Z,81.21
2018-12-15T03:12:50.964Z,81.09
2018-12-15T03:17:14.879Z,81.06
2018-12-15T03:21:19.818Z,80.95
2018-12-15T03:25:24.778Z,80.86
2018-12-15T03:29:29.824Z,80.88
2018-12-15T03:38:41.015Z,80.86
2018-12-15T03:42:46.053Z,80.81
2018-12-15T03:46:51.116Z,80.81
2018-12-15T03:50:56.054Z,80.74
2018-12-15T03:55:01.496Z,80.78
2018-12-15T03:59:13.567Z,80.75
2018-12-15T04:03:18.545Z,80.73
2018-12-15T04:07:23.552Z,80.75
2018-12-15T04:11:28.538Z,80.79
2018-12-15T04:15:33.702Z,80.80
2018-12-15T04:19:38.609Z,80.85
2018-12-15T04:23:43.601Z,80.83
2018-12-15T04:27:48.653Z,80.85
2018-12-15T04:31:53.657Z,80.86
2018-12-15T04:35:58.691Z,80.83
2018-12-15T04:40:03.664Z,80.81
2018-12-15T04:44:08.764Z,80.83
2018-12-15T04:48:13.783Z,80.75
2018-12-15T04:52:18.818Z,80.81
2018-12-15T04:56:23.812Z,80.89
2018-12-15T05:00:28.800Z,80.86
2018-12-15T05:04:33.715Z,80.86
2018-12-15T05:13:09.561Z,80.74
2018-12-15T05:17:14.708Z,80.67
2018-12-15T05:21:19.668Z,80.75
2018-12-15T05:25:24.626Z,80.72
2018-12-15T05:29:29.580Z,80.74
2018-12-15T05:33:34.934Z,80.83
2018-12-15T05:37:39.883Z,80.71
2018-12-15T05:41:44.827Z,80.73
2018-12-15T05:45:49.849Z,80.83
2018-12-15T05:49:54.941Z,80.71
2018-12-15T05:53:59.943Z,80.86
2018-12-15T05:58:04.973Z,80.81
2018-12-15T06:06:24.265Z,80.85
2018-12-15T06:10:29.231Z,80.85
2018-12-15T06:19:05.560Z,81.20
2018-12-15T06:23:10.663Z,81.15
2018-12-15T06:27:15.680Z,81.39
2018-12-15T06:31:20.578Z,81.53
2018-12-15T06:35:25.590Z,81.57
2018-12-15T06:39:30.497Z,81.64
2018-12-15T06:43:35.969Z,81.63
2018-12-15T06:47:41.053Z,81.68
2018-12-15T06:51:46.007Z,81.66
2018-12-15T06:55:51.051Z,81.70
2018-12-15T06:59:56.012Z,81.71
2018-12-15T07:08:11.421Z,81.77
2018-12-15T07:12:16.454Z,81.70
2018-12-15T07:16:21.313Z,81.71
2018-12-15T07:20:26.341Z,81.58
2018-12-15T07:24:31.600Z,81.81
2018-12-15T07:28:36.656Z,82.33
2018-12-15T07:32:42.135Z,81.83
2018-12-15T07:36:47.136Z,81.56
2018-12-15T07:40:52.166Z,81.41
2018-12-15T07:44:57.242Z,81.50
2018-12-15T07:49:02.146Z,81.68
2018-12-15T07:53:07.155Z,81.75
2018-12-15T07:57:12.177Z,81.74
2018-12-15T08:01:17.301Z,81.79
2018-12-15T08:05:22.251Z,81.80
2018-12-15T08:09:27.340Z,81.92
2018-12-15T08:13:33.746Z,81.70
2018-12-15T08:17:39.130Z,81.62
2018-12-15T08:21:44.145Z,81.62
2018-12-15T08:25:49.070Z,81.47
2018-12-15T08:29:54.110Z,81.51
2018-12-15T08:33:59.218Z,81.59
2018-12-15T08:38:04.174Z,81.57
2018-12-15T08:42:09.160Z,82.64
2018-12-15T08:50:43.576Z,81.41
2018-12-15T08:54:50.671Z,81.10
2018-12-15T08:58:55.487Z,81.06
2018-12-15T09:03:00.270Z,81.28
2018-12-15T09:07:05.092Z,81.13
2018-12-15T09:11:09.899Z,81.21
2018-12-15T09:15:14.741Z,81.07
2018-12-15T09:19:19.627Z,81.03
2018-12-15T09:23:24.530Z,80.88
2018-12-15T09:27:29.287Z,80.81
2018-12-15T09:31:34.185Z,80.79
2018-12-15T09:35:38.912Z,80.76
2018-12-15T09:39:43.795Z,80.59
2018-12-15T09:43:48.621Z,80.47
2018-12-15T09:47:53.392Z,80.44
2018-12-15T09:51:58.223Z,80.54
2018-12-15T09:56:02.969Z,80.47
2018-12-15T10:00:08.145Z,80.71
2018-12-15T10:04:12.904Z,80.61
2018-12-15T10:08:17.719Z,80.44
2018-12-15T10:12:22.621Z,80.69
2018-12-15T10:16:27.571Z,80.58
2018-12-15T10:20:32.364Z,80.50
2018-12-15T10:24:37.300Z,80.53
2018-12-15T10:28:42.108Z,80.67
2018-12-15T10:33:05.744Z,80.39
2018-12-15T10:37:11.271Z,80.24
2018-12-15T10:41:16.379Z,80.14
2018-12-15T10:45:21.210Z,80.43
2018-12-15T10:49:30.626Z,80.52
2018-12-15T10:53:32.756Z,80.08
2018-12-15T10:57:37.692Z,80.27
2018-12-15T11:01:42.457Z,80.17
2018-12-15T11:05:47.255Z,79.94
2018-12-15T11:09:52.034Z,79.91
2018-12-15T11:13:56.940Z,79.91
2018-12-15T11:18:01.714Z,79.65
2018-12-15T11:22:06.555Z,79.47
2018-12-15T11:26:11.345Z,79.48
2018-12-15T11:30:16.258Z,79.54
2018-12-15T11:34:21.022Z,79.52
2018-12-15T11:38:25.839Z,79.49
2018-12-15T11:42:30.637Z,79.27
2018-12-15T11:46:35.492Z,79.28
2018-12-15T11:50:40.318Z,79.31
2018-12-15T11:54:45.131Z,79.53
2018-12-15T11:58:49.893Z,79.57
2018-12-15T12:02:54.714Z,80.03
2018-12-15T12:06:59.518Z,79.71
2018-12-15T12:11:04.282Z,79.30
2018-12-15T12:15:09.075Z,79.33
2018-12-15T12:19:13.878Z,79.36
2018-12-15T12:23:18.744Z,79.44
2018-12-15T12:27:23.544Z,79.70
2018-12-15T12:31:28.339Z,79.46
2018-12-15T12:35:33.149Z,79.39
2018-12-15T12:39:37.906Z,79.62
2018-12-15T12:43:42.730Z,79.75
2018-12-15T12:47:47.537Z,80.13
2018-12-15T12:51:52.355Z,80.19
2018-12-15T12:55:57.501Z,80.09
2018-12-15T13:04:12.586Z,79.75
2018-12-15T13:08:17.470Z,79.97
2018-12-15T13:12:22.379Z,79.98
2018-12-15T13:16:27.122Z,79.96
2018-12-15T13:20:31.929Z,80.02
2018-12-15T13:24:36.734Z,79.92
2018-12-15T13:28:41.558Z,80.13
2018-12-15T13:32:46.393Z,80.28
2018-12-15T13:36:51.211Z,80.38
2018-12-15T13:40:56.042Z,80.42
2018-12-15T13:45:00.818Z,80.72
2018-12-15T13:49:05.656Z,80.72
2018-12-15T13:53:10.438Z,80.58
2018-12-15T13:57:15.510Z,80.60
2018-12-15T14:01:20.363Z,80.59
2018-12-15T14:05:25.121Z,80.59
2018-12-15T14:09:29.941Z,80.40
2018-12-15T14:13:34.769Z,80.48
2018-12-15T14:17:39.558Z,80.37
2018-12-15T14:22:03.236Z,80.24
2018-12-15T14:26:08.043Z,80.39
2018-12-15T14:30:12.866Z,80.29
2018-12-15T14:34:17.672Z,80.18
2018-12-15T14:38:22.482Z,80.19
2018-12-15T14:42:27.414Z,80.39
2018-12-15T14:46:32.250Z,80.30
2018-12-15T14:50:37.039Z,80.89
2018-12-15T14:54:42.318Z,80.39
2018-12-15T14:58:47.085Z,80.42
2018-12-15T15:02:52.050Z,80.58
2018-12-15T15:06:56.872Z,80.51
2018-12-15T15:11:01.712Z,80.49
2018-12-15T15:15:25.438Z,80.31
2018-12-15T15:19:30.271Z,80.61
2018-12-15T15:23:35.144Z,80.58
2018-12-15T15:27:40.149Z,80.61
2018-12-15T15:31:45.015Z,80.52
2018-12-15T15:35:49.851Z,80.27
2018-12-15T15:39:55.085Z,80.29
2018-12-15T15:44:18.855Z,80.02
2018-12-15T15:53:13.007Z,79.41
2018-12-15T15:57:17.830Z,79.15
2018-12-15T16:01:22.711Z,78.89
2018-12-15T16:05:27.527Z,78.37
2018-12-15T16:09:32.413Z,77.47
2018-12-15T16:13:37.333Z,77.59
2018-12-15T16:17:42.103Z,77.14
2018-12-15T16:21:47.118Z,76.77
2018-12-15T16:25:51.881Z,76.68
2018-12-15T16:29:56.800Z,76.65
2018-12-15T16:34:01.596Z,76.71
2018-12-15T16:42:17.309Z,75.92
2018-12-15T16:46:22.146Z,75.85
2018-12-15T16:50:27.180Z,75.16
2018-12-15T16:54:31.984Z,75.34
2018-12-15T16:58:55.706Z,75.10
2018-12-15T17:03:00.934Z,74.59
2018-12-15T17:07:05.763Z,74.32
2018-12-15T17:11:10.523Z,73.68
2018-12-15T17:15:15.455Z,74.19
2018-12-15T17:19:20.320Z,73.54
2018-12-15T17:23:25.105Z,73.55
2018-12-15T17:27:31.373Z,73.24
2018-12-15T17:31:36.211Z,73.16
2018-12-15T17:35:41.050Z,73.19
2018-12-15T17:39:45.830Z,73.27
2018-12-15T17:43:50.690Z,72.18
2018-12-15T17:47:55.568Z,72.25
2018-12-15T17:52:00.428Z,71.50
2018-12-15T17:56:05.262Z,72.26
2018-12-15T18:00:12.295Z,72.12
2018-12-15T18:04:17.258Z,71.59
2018-12-15T18:08:22.232Z,71.73
2018-12-15T18:12:27.092Z,71.68
2018-12-15T18:16:31.851Z,71.93
2018-12-15T18:20:36.926Z,71.54
2018-12-15T18:25:00.610Z,70.91
2018-12-15T18:29:05.560Z,71.23
2018-12-15T18:33:10.514Z,71.99
2018-12-15T18:37:15.346Z,71.94
2018-12-15T18:41:20.203Z,71.82
2018-12-15T18:45:25.048Z,71.98
2018-12-15T18:49:30.478Z,71.93
2018-12-15T18:53:36.518Z,71.79
2018-12-15T18:57:41.357Z,71.49
2018-12-15T19:02:05.385Z,71.45
2018-12-15T19:06:10.428Z,71.30
2018-12-15T19:10:15.434Z,71.40
2018-12-15T19:14:20.415Z,71.08
2018-12-15T19:18:25.450Z,72.43
2018-12-15T19:22:30.426Z,70.14
2018-12-15T19:26:35.818Z,69.32
2018-12-15T19:30:40.765Z,69.86
2018-12-15T19:34:52.291Z,69.39
2018-12-15T19:38:52.717Z,70.09
2018-12-15T19:42:57.671Z,69.76
2018-12-15T19:47:02.739Z,69.84
2018-12-15T19:51:07.766Z,69.67
2018-12-15T19:55:12.704Z,69.72
2018-12-15T19:59:17.789Z,69.96
2018-12-15T20:03:22.624Z,70.37
2018-12-15T20:07:27.434Z,70.40
2018-12-15T20:11:32.334Z,70.35
2018-12-15T20:15:56.035Z,70.06
2018-12-15T20:20:00.879Z,70.21
2018-12-15T20:24:05.766Z,70.14
2018-12-15T20:28:10.646Z,70.29
2018-12-15T20:32:15.479Z,70.43
2018-12-15T20:36:59.576Z,70.30
2018-12-15T20:41:04.620Z,70.21
2018-12-15T20:45:09.378Z,70.21
2018-12-15T20:53:25.150Z,69.79
2018-12-15T20:57:29.987Z,69.43
2018-12-15T21:01:34.881Z,70.00
2018-12-15T21:05:39.847Z,69.85
2018-12-15T21:09:44.645Z,70.03
2018-12-15T21:13:49.431Z,69.97
2018-12-15T21:17:54.358Z,69.73
2018-12-15T21:21:59.279Z,69.89
2018-12-15T21:26:04.121Z,69.89
2018-12-15T21:30:10.312Z,70.35
2018-12-15T21:34:15.144Z,69.65
2018-12-15T21:38:20.005Z,69.71
2018-12-15T21:42:24.887Z,69.62
2018-12-15T21:46:29.693Z,69.80
2018-12-15T21:50:34.565Z,68.52
2018-12-15T21:54:39.741Z,69.30
2018-12-15T21:58:44.504Z,69.23
2018-12-15T22:02:49.425Z,69.04
2018-12-15T22:06:54.231Z,68.91
2018-12-15T22:10:59.046Z,69.06
2018-12-15T22:15:03.972Z,69.25
2018-12-15T22:19:08.933Z,69.03
2018-12-15T22:28:10.351Z,69.23
2018-12-15T22:32:15.209Z,68.54
2018-12-15T22:36:20.086Z,67.84
2018-12-15T22:40:25.038Z,68.42
2018-12-15T22:44:29.848Z,68.74
2018-12-15T22:48:34.636Z,67.65
2018-12-15T22:52:39.526Z,67.89
2018-12-15T22:56:44.339Z,68.03
2018-12-15T23:05:18.229Z,67.59
2018-12-15T23:09:23.029Z,67.01
2018-12-15T23:13:27.827Z,66.88
2018-12-15T23:17:32.643Z,66.99
2018-12-15T23:21:37.472Z,66.07
2018-12-15T23:25:42.290Z,66.37
2018-12-15T23:29:47.116Z,67.18
2018-12-15T23:33:51.953Z,67.13
2018-12-15T23:37:56.804Z,67.79
2018-12-15T23:42:01.624Z,68.05
2018-12-15T23:46:06.393Z,68.42
2018-12-15T23:50:11.267Z,68.00
2018-12-15T23:54:16.124Z,68.00
2018-12-15T23:58:20.959Z,68.02
